Time;durP1;ratioP1;P1;durP2;ratioP2;P2;SDS_P1;SDS_P2;PMS_P1;PMS_P2;Temp;Humidity;BMP_temperature;BMP_pressure;BME280_temperature;BME280_humidity;BME280_pressure;Samples;Min_cycle;Max_cycle;Signal;HPM_P1;HPM_P2
2024/03/01 00:01:50;;;;;;;108.70;48.70;;;;;;;7.60;100.00;100193.88;215334;1286;140933;-88
2024/03/01 00:06:50;;;;;;;105.50;50.10;;;;;;;7.58;100.00;100190.70;215258;1286;140336;-86
2024/03/01 00:11:51;;;;;;;103.50;47.10;;;;;;;7.55;100.00;100185.33;215843;1285;138986;-87
2024/03/01 00:16:51;;;;;;;113.40;52.60;;;;;;;7.53;100.00;100178.10;214808;1288;140344;-87
2024/03/01 00:21:51;;;;;;;99.00;46.40;;;;;;;7.52;100.00;100171.34;214802;1285;139339;-88
2024/03/01 00:26:52;;;;;;;98.30;46.50;;;;;;;7.48;100.00;100164.87;214518;1288;140199;-86
2024/03/01 00:31:52;;;;;;;106.50;49.50;;;;;;;7.47;100.00;100165.23;214893;1288;140247;-87
2024/03/01 00:36:52;;;;;;;103.70;47.50;;;;;;;7.46;100.00;100164.64;215144;1288;140943;-87
2024/03/01 00:41:53;;;;;;;107.20;47.30;;;;;;;7.45;100.00;100160.56;215078;1288;139268;-89
2024/03/01 00:46:53;;;;;;;102.50;48.90;;;;;;;7.44;100.00;100158.84;214495;1288;140541;-87
2024/03/01 00:51:54;;;;;;;101.30;45.90;;;;;;;7.43;100.00;100158.19;215054;1286;139787;-87
2024/03/01 00:56:54;;;;;;;104.40;48.40;;;;;;;7.41;100.00;100153.23;214280;1288;140389;-87
2024/03/01 01:01:54;;;;;;;110.80;50.00;;;;;;;7.40;100.00;100148.35;214731;1288;139233;-87
2024/03/01 01:06:55;;;;;;;105.70;49.20;;;;;;;7.39;100.00;100144.73;214373;1287;140475;-86
2024/03/01 01:11:56;;;;;;;112.60;50.10;;;;;;;7.39;100.00;100141.52;214997;1288;139483;-85
2024/03/01 01:16:56;;;;;;;132.70;60.00;;;;;;;7.38;100.00;100130.09;214573;1288;140464;-86
2024/03/01 01:21:57;;;;;;;112.50;49.60;;;;;;;7.37;100.00;100130.63;214897;1288;139326;-86
2024/03/01 01:26:57;;;;;;;101.80;49.30;;;;;;;7.36;100.00;100128.64;214479;1288;141128;-86
2024/03/01 01:31:58;;;;;;;114.80;49.00;;;;;;;7.34;100.00;100128.14;215014;1286;139222;-86
2024/03/01 01:36:58;;;;;;;111.70;47.30;;;;;;;7.32;100.00;100115.44;214842;1288;140096;-87
2024/03/01 01:41:58;;;;;;;106.30;47.60;;;;;;;7.33;100.00;100109.42;215221;1285;139205;-85
2024/03/01 01:47:00;;;;;;;103.40;48.20;;;;;;;7.33;100.00;100101.98;215284;1286;140323;-86
2024/03/01 01:52:00;;;;;;;112.10;49.40;;;;;;;7.32;100.00;100098.23;215218;1288;139536;-85
2024/03/01 01:57:01;;;;;;;107.10;49.60;;;;;;;7.30;100.00;100094.83;214939;1284;140276;-86
2024/03/01 02:02:01;;;;;;;119.70;49.40;;;;;;;7.29;100.00;100085.52;215556;1287;139744;-87
2024/03/01 02:07:04;;;;;;;109.70;50.30;;;;;;;7.28;100.00;100081.26;216052;1285;140860;-85
2024/03/01 02:12:04;;;;;;;107.90;49.10;;;;;;;7.27;100.00;100070.77;217372;1285;139550;-86
2024/03/01 02:17:05;;;;;;;108.30;51.30;;;;;;;7.25;100.00;100060.46;214531;1286;140928;-85
2024/03/01 02:22:11;;;;;;;111.70;50.00;;;;;;;7.23;100.00;100049.34;214641;1286;139211;-85
2024/03/01 02:27:12;;;;;;;111.50;48.20;;;;;;;7.22;100.00;100045.71;214253;1286;140887;-85
2024/03/01 02:32:12;;;;;;;101.40;49.10;;;;;;;7.20;100.00;100042.23;214763;1286;141025;-85
2024/03/01 02:37:12;;;;;;;123.90;52.20;;;;;;;7.16;100.00;100032.95;214353;1286;140300;-85
2024/03/01 02:42:13;;;;;;;178.70;70.90;;;;;;;7.12;100.00;100027.55;215486;1286;140049;-85
2024/03/01 02:47:13;;;;;;;128.10;53.00;;;;;;;7.11;100.00;100024.02;214435;1285;140831;-85
2024/03/01 02:52:15;;;;;;;130.30;53.90;;;;;;;7.07;100.00;100014.01;214886;1287;139309;-85
2024/03/01 02:57:15;;;;;;;109.90;49.80;;;;;;;7.05;100.00;100011.41;214398;1286;140821;-84
2024/03/01 03:02:16;;;;;;;116.30;49.30;;;;;;;7.04;100.00;100008.55;215284;1286;140323;-84
2024/03/01 03:07:16;;;;;;;113.70;51.20;;;;;;;7.01;100.00;100006.23;214502;1285;140254;-84
2024/03/01 03:12:16;;;;;;;110.40;49.90;;;;;;;6.98;100.00;100002.83;214828;1285;139116;-85
2024/03/01 03:17:17;;;;;;;124.10;51.40;;;;;;;6.94;100.00;100000.10;214231;1285;140712;-84
2024/03/01 03:22:18;;;;;;;110.40;48.70;;;;;;;6.94;100.00;99997.82;214717;1287;139657;-85
2024/03/01 03:27:18;;;;;;;115.40;50.50;;;;;;;6.90;100.00;99998.45;214286;1285;140131;-85
2024/03/01 03:32:18;;;;;;;110.70;49.00;;;;;;;6.87;100.00;99998.55;214861;1284;139131;-84
2024/03/01 03:37:20;;;;;;;120.40;49.60;;;;;;;6.85;100.00;99999.45;214749;1286;140306;-85
2024/03/01 03:42:20;;;;;;;119.30;50.70;;;;;;;6.80;100.00;99994.27;215094;1286;138951;-85
2024/03/01 03:47:21;;;;;;;101.30;46.60;;;;;;;6.80;100.00;99994.61;214389;1287;140141;-85
2024/03/01 03:52:21;;;;;;;99.80;45.50;;;;;;;6.79;100.00;99992.70;214715;1287;139015;-85
2024/03/01 03:57:21;;;;;;;111.80;50.90;;;;;;;6.81;100.00;99998.74;214290;1286;141002;-85
2024/03/01 04:02:22;;;;;;;105.50;47.10;;;;;;;6.82;100.00;99989.46;214903;1287;139914;-84
2024/03/01 04:07:22;;;;;;;115.70;50.70;;;;;;;6.83;100.00;99992.92;214531;1285;140709;-85
2024/03/01 04:12:22;;;;;;;104.00;49.40;;;;;;;6.84;100.00;99990.38;214852;1286;138666;-85
2024/03/01 04:17:24;;;;;;;119.50;52.70;;;;;;;6.85;100.00;99986.48;214323;1285;140905;-84
2024/03/01 04:22:24;;;;;;;114.50;54.30;;;;;;;6.86;100.00;99983.38;214769;1290;139001;-86
2024/03/01 04:27:25;;;;;;;113.50;51.60;;;;;;;6.88;100.00;99978.41;214516;1285;140070;-86
2024/03/01 04:32:25;;;;;;;120.90;55.00;;;;;;;6.87;100.00;99976.45;215010;1285;139578;-86
2024/03/01 04:37:25;;;;;;;123.50;55.30;;;;;;;6.87;100.00;99974.64;214674;1285;140494;-86
2024/03/01 04:42:26;;;;;;;169.50;67.40;;;;;;;6.86;100.00;99970.55;215695;1285;139053;-86
2024/03/01 04:47:27;;;;;;;252.90;114.20;;;;;;;6.87;100.00;99971.42;214387;1286;140166;-86
2024/03/01 04:52:27;;;;;;;135.70;57.90;;;;;;;6.87;100.00;99965.73;214757;1285;139191;-86
2024/03/01 04:57:28;;;;;;;141.60;58.70;;;;;;;6.86;100.00;99969.08;214287;1285;140481;-87
2024/03/01 05:02:28;;;;;;;130.60;54.90;;;;;;;6.87;100.00;99967.30;214781;1285;139633;-86
2024/03/01 05:07:29;;;;;;;126.80;53.10;;;;;;;6.88;100.00;99969.50;214277;1288;140345;-86
2024/03/01 05:12:29;;;;;;;128.00;53.30;;;;;;;6.89;100.00;99971.40;214888;1285;98021;-87
2024/03/01 05:17:32;;;;;;;118.90;50.60;;;;;;;6.91;100.00;99973.15;214170;1285;140196;-86
2024/03/01 05:22:36;;;;;;;135.20;56.20;;;;;;;6.93;100.00;99974.28;214914;1285;139034;-85
2024/03/01 05:27:36;;;;;;;126.90;54.50;;;;;;;6.95;100.00;99970.33;214178;1285;141058;-85
2024/03/01 05:32:43;;;;;;;131.60;54.80;;;;;;;6.96;100.00;99972.16;214910;1284;139057;-86
2024/03/01 05:37:44;;;;;;;120.50;54.00;;;;;;;6.98;100.00;99975.30;214295;1288;140294;-85
2024/03/01 05:42:44;;;;;;;133.10;55.10;;;;;;;7.00;100.00;99975.66;215083;1285;97950;-87
2024/03/01 05:47:45;;;;;;;137.60;53.50;;;;;;;7.03;100.00;99979.63;215030;1284;140082;-86
2024/03/01 05:52:48;;;;;;;131.90;53.60;;;;;;;7.05;100.00;99978.55;215645;1285;139000;-87
2024/03/01 05:57:49;;;;;;;133.30;54.60;;;;;;;7.08;100.00;99974.73;215108;1285;140182;-86
2024/03/01 06:02:49;;;;;;;128.00;53.30;;;;;;;7.13;100.00;99977.52;215569;1285;139807;-86
2024/03/01 06:07:50;;;;;;;144.40;57.90;;;;;;;7.14;100.00;99979.05;215046;1288;140546;-87
2024/03/01 06:12:50;;;;;;;137.50;55.90;;;;;;;7.15;100.00;99976.86;215692;1285;97633;-87
2024/03/01 06:17:51;;;;;;;134.20;55.30;;;;;;;7.18;100.00;99976.90;214659;1287;140094;-87
2024/03/01 06:22:51;;;;;;;133.80;51.20;;;;;;;7.20;100.00;99975.86;215216;1285;138940;-87
2024/03/01 06:27:51;;;;;;;130.70;55.70;;;;;;;7.24;100.00;99975.46;214661;1285;140277;-85
2024/03/01 06:32:53;;;;;;;141.40;58.90;;;;;;;7.27;100.00;99981.30;214813;1286;139173;-85
2024/03/01 06:37:54;;;;;;;139.10;58.00;;;;;;;7.32;100.00;99986.45;214323;1286;141613;-85
2024/03/01 06:42:55;;;;;;;128.90;54.40;;;;;;;7.36;100.00;99981.91;214775;1287;97999;-85
2024/03/01 06:47:55;;;;;;;126.20;54.80;;;;;;;7.41;100.00;99985.20;214900;1286;140245;-86
2024/03/01 06:52:56;;;;;;;146.30;55.40;;;;;;;7.45;100.00;99981.36;214797;1286;138857;-87
2024/03/01 06:57:57;;;;;;;134.70;52.80;;;;;;;7.50;100.00;99978.86;214553;1286;140318;-87
2024/03/01 07:02:58;;;;;;;139.50;54.00;;;;;;;7.55;100.00;99976.75;215591;1285;139780;-87
2024/03/01 07:07:58;;;;;;;141.70;58.20;;;;;;;7.61;100.00;99977.94;215106;1284;140163;-87
2024/03/01 07:12:58;;;;;;;136.00;56.70;;;;;;;7.67;100.00;99976.95;215758;1285;97890;-88
2024/03/01 07:17:59;;;;;;;133.10;56.50;;;;;;;7.73;100.00;99979.63;215090;1285;139971;-87
2024/03/01 07:22:59;;;;;;;131.90;54.90;;;;;;;7.81;100.00;99982.70;215519;1285;139340;-87
2024/03/01 07:28:01;;;;;;;136.80;55.60;;;;;;;7.90;100.00;99981.11;214655;1288;139440;-87
2024/03/01 07:33:01;;;;;;;153.50;59.50;;;;;;;7.98;100.00;99969.96;215076;1286;139489;-86
2024/03/01 07:38:01;;;;;;;139.40;60.00;;;;;;;8.08;100.00;99977.61;214698;1286;140358;-87
2024/03/01 07:43:02;;;;;;;142.80;63.30;;;;;;;8.15;100.00;99973.25;215222;1288;99288;-86
2024/03/01 07:48:04;;;;;;;160.40;67.30;;;;;;;8.24;100.00;99978.27;215182;1287;140651;-87
2024/03/01 07:53:05;;;;;;;137.60;57.40;;;;;;;8.33;100.00;99984.88;215064;1285;138918;-88
2024/03/01 07:58:05;;;;;;;164.60;64.30;;;;;;;8.42;100.00;99982.09;214768;1284;140120;-88
2024/03/01 08:03:10;;;;;;;142.70;59.00;;;;;;;8.53;100.00;99981.75;215180;1285;139157;-88
2024/03/01 08:08:11;;;;;;;133.80;58.90;;;;;;;8.63;100.00;99986.67;214678;1284;140140;-87
2024/03/01 08:13:13;;;;;;;141.20;59.50;;;;;;;8.74;100.00;99985.61;215438;1285;97897;-88
2024/03/01 08:18:21;;;;;;;131.50;60.20;;;;;;;8.82;100.00;99992.20;214780;1285;140719;-88
2024/03/01 08:23:24;;;;;;;143.20;59.30;;;;;;;8.91;100.00;99991.52;215159;1284;139551;-87
2024/03/01 08:28:27;;;;;;;142.80;64.80;;;;;;;8.98;100.00;99989.94;214384;1285;312004;-85
2024/03/01 08:33:27;;;;;;;138.80;65.20;;;;;;;9.06;100.00;99982.34;215177;1284;140613;-87
2024/03/01 08:38:58;;;;;;;132.20;59.80;;;;;;;9.17;100.00;99985.03;214606;1284;140751;-87
2024/03/01 08:43:59;;;;;;;136.60;62.90;;;;;;;9.31;100.00;99975.67;216916;1285;139118;-86
2024/03/01 08:49:37;;;;;;;140.80;63.80;;;;;;;9.46;100.00;99963.86;215015;1285;140658;-87
2024/03/01 08:54:39;;;;;;;126.80;59.30;;;;;;;9.66;100.00;99953.27;215755;1286;105562;-85
2024/03/01 08:59:48;;;;;;;123.70;60.40;;;;;;;9.81;100.00;99956.28;215134;1285;140697;-86
2024/03/01 09:04:48;;;;;;;128.80;59.80;;;;;;;10.00;100.00;99947.45;215153;1288;140389;-87
2024/03/01 09:09:49;;;;;;;118.40;59.50;;;;;;;10.21;100.00;99944.60;214538;1288;140754;-85
2024/03/01 09:14:50;;;;;;;105.80;58.20;;;;;;;10.50;100.00;99939.69;214885;1284;139434;-85
2024/03/01 09:19:51;;;;;;;119.50;61.10;;;;;;;10.82;100.00;99936.64;214164;1287;140157;-85
2024/03/01 09:24:51;;;;;;;102.40;54.80;;;;;;;11.18;100.00;99929.20;214596;1286;98030;-86
2024/03/01 09:29:52;;;;;;;114.00;56.10;;;;;;;11.53;100.00;99937.17;214040;1285;140032;-87
2024/03/01 09:34:52;;;;;;;88.80;50.00;;;;;;;11.85;100.00;99937.69;214595;1285;139399;-86
2024/03/01 09:39:55;;;;;;;95.70;53.10;;;;;;;12.07;100.00;99936.93;214258;1286;140302;-86
2024/03/01 09:45:23;;;;;;;96.20;52.80;;;;;;;12.30;100.00;99930.16;214808;1285;139690;-86
2024/03/01 09:50:56;;;;;;;101.50;56.10;;;;;;;12.44;100.00;99924.65;214763;1284;140299;-86
2024/03/01 09:56:33;;;;;;;92.80;51.40;;;;;;;12.51;100.00;99923.90;215098;1284;139333;-86
2024/03/01 10:01:38;;;;;;;88.30;50.30;;;;;;;12.50;100.00;99927.39;214501;1291;367469;-85
2024/03/01 10:06:59;;;;;;;95.10;49.10;;;;;;;12.59;100.00;99919.70;214092;1286;140463;-87
2024/03/01 10:12:06;;;;;;;87.20;50.30;;;;;;;12.73;100.00;99919.15;214825;1285;139345;-86
2024/03/01 10:17:22;;;;;;;82.40;48.30;;;;;;;12.76;100.00;99917.86;214382;1284;140868;-85
2024/03/01 10:22:52;;;;;;;82.80;45.70;;;;;;;12.90;100.00;99919.27;214800;1284;139458;-86
2024/03/01 10:28:25;;;;;;;79.80;46.80;;;;;;;13.05;100.00;99921.10;214176;1287;141519;-86
2024/03/01 10:34:09;;;;;;;82.80;48.20;;;;;;;13.21;100.00;99911.59;214258;1286;139400;-87
2024/03/01 10:39:14;;;;;;;79.20;47.30;;;;;;;13.22;100.00;99900.52;213928;1285;140585;-87
2024/03/01 10:44:26;;;;;;;89.00;52.30;;;;;;;13.30;100.00;99905.04;214568;1285;139566;-86
2024/03/01 10:49:42;;;;;;;113.10;56.70;;;;;;;13.32;100.00;99897.77;214230;1286;140511;-85
2024/03/01 10:54:50;;;;;;;77.50;47.50;;;;;;;13.40;100.00;99892.79;215107;1287;110453;-86
2024/03/01 11:00:06;;;;;;;84.50;47.90;;;;;;;13.48;100.00;99890.48;213790;1287;140528;-87
2024/03/01 11:05:16;;;;;;;90.20;50.60;;;;;;;13.59;100.00;99887.40;214373;1287;140024;-88
2024/03/01 11:10:32;;;;;;;72.90;45.80;;;;;;;13.68;100.00;99885.89;214154;1285;140962;-87
2024/03/01 11:15:35;;;;;;;81.60;46.40;;;;;;;13.73;100.00;99887.58;214725;1285;141048;-85
2024/03/01 11:20:45;;;;;;;75.40;45.50;;;;;;;13.86;100.00;99888.30;214340;1285;140774;-87
2024/03/01 11:25:59;;;;;;;74.50;44.50;;;;;;;13.88;100.00;99879.27;214680;1284;139918;-87
2024/03/01 11:31:07;;;;;;;75.50;45.80;;;;;;;13.82;100.00;99882.73;214226;1284;140417;-87
2024/03/01 11:36:30;;;;;;;81.90;45.90;;;;;;;13.79;100.00;99884.35;214743;1284;139866;-86
2024/03/01 11:41:42;;;;;;;76.40;46.50;;;;;;;13.80;100.00;99881.01;214771;1285;365256;-87
2024/03/01 11:47:02;;;;;;;80.10;45.00;;;;;;;13.85;100.00;99883.02;214351;1285;140433;-87
2024/03/01 11:52:30;;;;;;;73.90;44.30;;;;;;;13.89;100.00;99885.10;214850;1285;139948;-86
2024/03/01 11:57:52;;;;;;;68.90;42.00;;;;;;;13.99;100.00;99884.20;214539;1284;140454;-85
2024/03/01 12:03:08;;;;;;;79.30;44.70;;;;;;;14.01;100.00;99879.11;214881;1285;139404;-88
2024/03/01 12:08:34;;;;;;;78.90;45.50;;;;;;;14.03;100.00;99885.65;214364;1285;141012;-86
2024/03/01 12:13:41;;;;;;;75.40;44.40;;;;;;;13.97;100.00;99877.19;214914;1285;99003;-87
2024/03/01 12:18:53;;;;;;;80.80;50.20;;;;;;;14.01;100.00;99868.45;214333;1285;140850;-86
2024/03/01 12:23:53;;;;;;;73.00;47.80;;;;;;;14.02;100.00;99867.17;214849;1285;139686;-86
2024/03/01 12:29:24;;;;;;;74.40;45.30;;;;;;;14.08;100.00;99865.83;214388;1285;140220;-85
2024/03/01 12:34:46;;;;;;;73.10;45.90;;;;;;;14.13;100.00;99859.77;214891;1285;139307;-86
2024/03/01 12:40:00;;;;;;;75.50;43.80;;;;;;;14.09;100.00;99860.67;214644;1288;141186;-86
2024/03/01 12:45:17;;;;;;;75.70;46.30;;;;;;;14.09;100.00;99863.91;214952;1288;139898;-86
2024/03/01 12:50:43;;;;;;;;;;;;;;;14.13;100.00;99866.63;214106;1285;153066;-85
2024/03/01 12:55:57;;;;;;;75.80;45.10;;;;;;;14.10;100.00;99869.92;215913;1285;124500;-86
2024/03/01 13:01:35;;;;;;;79.20;46.80;;;;;;;14.07;100.00;99870.91;214227;1287;140747;-86
2024/03/01 13:06:35;;;;;;;81.80;48.80;;;;;;;14.05;100.00;99862.64;214441;1285;141572;-86
2024/03/01 13:11:37;;;;;;;76.80;47.10;;;;;;;14.03;100.00;99856.09;215072;1285;139233;-86
2024/03/01 13:16:38;;;;;;;77.00;46.90;;;;;;;14.09;100.00;99865.44;214405;1288;141075;-87
2024/03/01 13:21:52;;;;;;;79.30;46.70;;;;;;;14.11;100.00;99856.40;214938;1288;139311;-85
2024/03/01 13:27:11;;;;;;;80.10;47.60;;;;;;;14.08;100.00;99849.30;214551;1285;140731;-86
2024/03/01 13:32:28;;;;;;;84.20;48.80;;;;;;;14.11;100.00;99841.61;215127;1285;139320;-85
2024/03/01 13:37:34;;;;;;;;;;;;;;;14.11;100.00;99836.63;214680;1285;140624;-87
2024/03/01 13:42:45;;;;;;;;;;;;;;;14.12;100.00;99840.95;215003;1285;125075;-87
2024/03/01 13:48:04;;;;;;;79.90;48.50;;;;;;;14.08;100.00;99831.84;214357;1284;126887;-86
2024/03/01 13:53:11;;;;;;;74.00;45.80;;;;;;;14.08;100.00;99831.77;214904;1285;139043;-85
2024/03/01 13:58:12;;;;;;;71.20;43.60;;;;;;;14.10;100.00;99833.87;214742;1287;140806;-86
2024/03/01 14:03:12;;;;;;;79.10;46.70;;;;;;;14.10;100.00;99828.89;214726;1284;139750;-86
2024/03/01 14:08:21;;;;;;;70.30;43.50;;;;;;;14.03;100.00;99826.52;214377;1285;141707;-86
2024/03/01 14:13:25;;;;;;;74.90;45.90;;;;;;;13.99;100.00;99821.91;214952;1285;105990;-85
2024/03/01 14:18:26;;;;;;;173.50;87.20;;;;;;;14.04;100.00;99816.08;214228;1286;141612;-86
2024/03/01 14:23:27;;;;;;;87.40;48.10;;;;;;;14.04;100.00;99819.88;214734;1286;139774;-85
2024/03/01 14:28:27;;;;;;;81.20;47.10;;;;;;;14.04;100.00;99823.20;214098;1287;140781;-85
2024/03/01 14:33:30;;;;;;;71.00;44.80;;;;;;;14.05;100.00;99827.22;214612;1285;139258;-86
2024/03/01 14:38:30;;;;;;;92.80;49.40;;;;;;;14.02;100.00;99834.84;214810;1284;141465;-86
2024/03/01 14:43:45;;;;;;;96.00;49.60;;;;;;;13.97;100.00;99838.61;215675;1285;99267;-85
2024/03/01 14:48:46;;;;;;;78.90;46.00;;;;;;;13.93;100.00;99837.63;216187;1285;141102;-87
2024/03/01 14:53:50;;;;;;;86.90;48.90;;;;;;;13.90;100.00;99842.56;215511;1284;139540;-85
2024/03/01 14:58:50;;;;;;;102.50;53.10;;;;;;;13.85;100.00;99847.05;216017;1285;141006;-87
2024/03/01 15:03:51;;;;;;;87.40;51.10;;;;;;;13.73;100.00;99850.27;215530;1288;143066;-86
2024/03/01 15:08:51;;;;;;;92.30;49.80;;;;;;;13.63;100.00;99850.31;215432;1285;140955;-86
2024/03/01 15:13:52;;;;;;;84.20;49.60;;;;;;;13.59;100.00;99845.75;215514;1285;139774;-86
2024/03/01 15:19:00;;;;;;;89.20;49.30;;;;;;;13.58;100.00;99846.23;214973;1287;140635;-85
2024/03/01 15:24:00;;;;;;;87.10;49.40;;;;;;;13.55;100.00;99847.46;215124;1286;142210;-85
2024/03/01 15:29:00;;;;;;;98.90;53.50;;;;;;;13.53;100.00;99850.09;214811;1287;140096;-86
2024/03/01 15:34:01;;;;;;;85.80;49.30;;;;;;;13.44;100.00;99842.52;214940;1286;140007;-86
2024/03/01 15:39:03;;;;;;;87.30;51.70;;;;;;;13.34;100.00;99835.73;214495;1287;140626;-85
2024/03/01 15:44:04;;;;;;;92.50;56.10;;;;;;;13.25;100.00;99837.89;214800;1290;139336;-85
2024/03/01 15:49:05;;;;;;;97.00;55.40;;;;;;;13.15;100.00;99838.69;214514;1285;140642;-85
2024/03/01 15:54:05;;;;;;;105.20;59.10;;;;;;;13.04;100.00;99838.86;214880;1284;139145;-86
2024/03/01 15:59:06;;;;;;;127.90;62.10;;;;;;;12.91;100.00;99845.02;214833;1285;140946;-85
2024/03/01 16:04:06;;;;;;;126.30;65.60;;;;;;;12.85;100.00;99845.60;215611;1288;139621;-87
2024/03/01 16:09:08;;;;;;;147.60;66.90;;;;;;;12.81;100.00;99848.55;214849;1288;140740;-87
2024/03/01 16:14:10;;;;;;;648.50;313.00;;;;;;;12.72;100.00;99848.85;215253;1285;139359;-86
2024/03/01 16:19:11;;;;;;;211.30;93.80;;;;;;;12.67;100.00;99852.76;214830;1285;140769;-87
2024/03/01 16:24:11;;;;;;;143.10;71.30;;;;;;;12.61;100.00;99855.33;215086;1285;139549;-87
2024/03/01 16:29:11;;;;;;;141.30;70.30;;;;;;;12.53;100.00;99858.67;214308;1287;140816;-87
2024/03/01 16:34:15;;;;;;;134.30;70.60;;;;;;;12.45;100.00;99862.29;215002;1285;139842;-87
2024/03/01 16:39:34;;;;;;;133.80;70.30;;;;;;;12.38;100.00;99864.77;214607;1285;141196;-86
2024/03/01 16:44:43;;;;;;;120.30;62.80;;;;;;;12.25;100.00;99864.98;215088;1285;139533;-86
2024/03/01 16:49:44;;;;;;;101.20;57.90;;;;;;;12.15;100.00;99867.79;214733;1285;141821;-85
2024/03/01 16:54:45;;;;;;;110.50;60.80;;;;;;;12.08;100.00;99870.73;215409;1288;111311;-86
2024/03/01 16:59:47;;;;;;;108.40;60.70;;;;;;;11.99;100.00;99871.08;215298;1286;141428;-87
2024/03/01 17:04:47;;;;;;;109.90;60.80;;;;;;;11.90;100.00;99878.60;215909;1288;139440;-87
2024/03/01 17:09:48;;;;;;;103.90;62.10;;;;;;;11.83;100.00;99880.27;214384;1285;140830;-87
2024/03/01 17:14:48;;;;;;;118.30;66.30;;;;;;;11.75;100.00;99885.58;214859;1286;141488;-87
2024/03/01 17:19:48;;;;;;;114.90;62.20;;;;;;;11.66;100.00;99883.46;214433;1288;140607;-87
2024/03/01 17:24:49;;;;;;;99.20;56.90;;;;;;;11.58;100.00;99885.03;215097;1285;99260;-87
2024/03/01 17:29:49;;;;;;;118.60;62.50;;;;;;;11.51;100.00;99879.36;214653;1286;140781;-85
2024/03/01 17:34:50;;;;;;;114.40;63.20;;;;;;;11.43;100.00;99877.96;214920;1288;140097;-86
2024/03/01 17:39:51;;;;;;;110.00;61.90;;;;;;;11.33;100.00;99878.60;214359;1286;140456;-85
2024/03/01 17:44:51;;;;;;;109.60;59.40;;;;;;;11.26;100.00;99881.90;214860;1286;139420;-86
2024/03/01 17:49:52;;;;;;;104.90;59.40;;;;;;;11.21;100.00;99886.00;214370;1284;140281;-86
2024/03/01 17:54:53;;;;;;;114.60;61.10;;;;;;;11.13;100.00;99889.00;215226;1288;99294;-86
2024/03/01 17:59:54;;;;;;;115.40;63.70;;;;;;;11.05;100.00;99890.17;214767;1285;140773;-85
2024/03/01 18:04:55;;;;;;;116.30;62.30;;;;;;;11.01;100.00;99892.85;216191;1285;139785;-86
2024/03/01 18:09:56;;;;;;;119.00;64.80;;;;;;;10.95;100.00;99887.26;214867;1286;141193;-86
2024/03/01 18:14:57;;;;;;;127.40;66.90;;;;;;;10.92;100.00;99886.47;215456;1288;139611;-86
2024/03/01 18:19:58;;;;;;;303.50;139.70;;;;;;;10.90;100.00;99882.77;214820;1285;140452;-86
2024/03/01 18:24:58;;;;;;;168.10;82.90;;;;;;;10.87;100.00;99883.55;215324;1285;98186;-86
2024/03/01 18:29:59;;;;;;;122.60;67.70;;;;;;;10.85;100.00;99880.80;214664;1286;141613;-86
2024/03/01 18:35:00;;;;;;;111.10;63.00;;;;;;;10.85;100.00;99879.30;215525;1284;139389;-86
2024/03/01 18:40:00;;;;;;;117.20;61.60;;;;;;;10.85;100.00;99881.27;214511;1285;140337;-85
2024/03/01 18:45:01;;;;;;;113.70;61.60;;;;;;;10.85;100.00;99877.65;215176;1285;139399;-85
2024/03/01 18:50:01;;;;;;;103.40;57.10;;;;;;;10.86;100.00;99879.22;214603;1287;142238;-86
2024/03/01 18:55:04;;;;;;;106.20;58.80;;;;;;;10.87;100.00;99879.31;215392;1288;98899;-86
2024/03/01 19:00:05;;;;;;;110.00;58.60;;;;;;;10.89;100.00;99884.49;214634;1286;140833;-86
2024/03/01 19:05:05;;;;;;;104.40;59.00;;;;;;;10.90;100.00;99886.94;216295;1287;138718;-87
2024/03/01 19:10:06;;;;;;;101.50;56.80;;;;;;;10.92;100.00;99887.89;215012;1288;140669;-85
2024/03/01 19:15:09;;;;;;;109.40;59.70;;;;;;;10.94;100.00;99888.20;215439;1288;139580;-86
2024/03/01 19:20:11;;;;;;;105.60;60.10;;;;;;;10.97;100.00;99893.07;215404;1286;140165;-86
2024/03/01 19:25:11;;;;;;;102.90;57.70;;;;;;;11.00;100.00;99893.70;215637;1286;97977;-86
2024/03/01 19:30:15;;;;;;;124.80;65.00;;;;;;;11.03;100.00;99894.34;214952;1288;140714;-87
2024/03/01 19:35:15;;;;;;;102.80;58.40;;;;;;;11.08;100.00;99894.50;215415;1288;139423;-85
2024/03/01 19:40:16;;;;;;;98.90;57.80;;;;;;;11.13;100.00;99896.16;214907;1285;141186;-86
2024/03/01 19:45:16;;;;;;;97.60;55.40;;;;;;;11.16;100.00;99897.26;215428;1286;139290;-86
2024/03/01 19:50:17;;;;;;;100.50;57.40;;;;;;;11.17;100.00;99899.62;214682;1288;140549;-85
2024/03/01 19:55:17;;;;;;;95.70;54.00;;;;;;;11.18;100.00;99900.16;215003;1287;99301;-84
2024/03/01 20:00:19;;;;;;;104.20;56.90;;;;;;;11.18;100.00;99900.25;214239;1287;140682;-85
2024/03/01 20:05:19;;;;;;;97.30;54.40;;;;;;;11.17;100.00;99904.73;216350;1287;139351;-85
2024/03/01 20:10:20;;;;;;;102.90;57.50;;;;;;;11.17;100.00;99910.95;214560;1288;140645;-85
2024/03/01 20:15:20;;;;;;;95.70;56.00;;;;;;;11.17;100.00;99913.46;215407;1288;139464;-86
2024/03/01 20:20:21;;;;;;;94.20;56.10;;;;;;;11.17;100.00;99914.64;214693;1286;140723;-85
2024/03/01 20:25:24;;;;;;;103.60;57.90;;;;;;;11.17;100.00;99922.13;215161;1290;107146;-84
2024/03/01 20:30:25;;;;;;;106.90;58.60;;;;;;;11.15;100.00;99918.11;214196;1292;185979;-86
2024/03/01 20:35:26;;;;;;;103.40;58.20;;;;;;;11.15;100.00;99926.38;214778;1285;139334;-85
2024/03/01 20:40:26;;;;;;;101.00;59.30;;;;;;;11.14;100.00;99932.90;214361;1290;141049;-86
2024/03/01 20:45:27;;;;;;;104.60;59.90;;;;;;;11.12;100.00;99927.94;214664;1286;139569;-86
2024/03/01 20:50:27;;;;;;;98.50;57.40;;;;;;;11.08;100.00;99924.80;214375;1289;140905;-86
2024/03/01 20:55:28;;;;;;;103.90;57.10;;;;;;;11.05;100.00;99925.27;215137;1287;96661;-87
2024/03/01 21:00:29;;;;;;;97.30;58.10;;;;;;;11.04;100.00;99924.08;214371;1284;140694;-86
2024/03/01 21:05:30;;;;;;;104.70;57.40;;;;;;;11.03;100.00;99931.33;215725;1286;139027;-86
2024/03/01 21:10:30;;;;;;;95.90;56.50;;;;;;;11.01;100.00;99924.94;214775;1286;140791;-85
2024/03/01 21:15:31;;;;;;;102.30;58.10;;;;;;;10.99;100.00;99917.78;215258;1286;139240;-86
2024/03/01 21:20:32;;;;;;;93.90;56.30;;;;;;;10.98;100.00;99912.59;214681;1288;140763;-86
2024/03/01 21:25:32;;;;;;;95.40;55.40;;;;;;;10.98;100.00;99913.21;215010;1288;107535;-85
2024/03/01 21:30:33;;;;;;;89.00;51.70;;;;;;;10.95;100.00;99917.15;214128;1286;140999;-86
2024/03/01 21:35:36;;;;;;;91.60;53.20;;;;;;;10.93;100.00;99909.27;214665;1291;139441;-86
2024/03/01 21:40:36;;;;;;;89.10;51.00;;;;;;;10.92;100.00;99910.14;214154;1289;140838;-87
2024/03/01 21:45:37;;;;;;;107.50;60.00;;;;;;;10.88;100.00;99910.06;215049;1284;139177;-87
2024/03/01 21:50:37;;;;;;;106.00;57.90;;;;;;;10.87;100.00;99910.84;214434;1288;141148;-88
2024/03/01 21:55:38;;;;;;;104.70;61.60;;;;;;;10.84;100.00;99909.11;215234;1288;98862;-88
2024/03/01 22:00:38;;;;;;;111.70;65.20;;;;;;;10.80;100.00;99910.91;214151;1287;140476;-89
2024/03/01 22:05:38;;;;;;;111.60;66.10;;;;;;;10.75;100.00;99908.30;215208;1288;139200;-88
2024/03/01 22:10:39;;;;;;;112.60;64.50;;;;;;;10.71;100.00;99908.46;214495;1286;140828;-88
2024/03/01 22:15:39;;;;;;;113.70;65.00;;;;;;;10.68;100.00;99905.54;215227;1288;140408;-86
2024/03/01 22:20:40;;;;;;;141.80;79.70;;;;;;;10.66;100.00;99908.67;214648;1286;141253;-88
2024/03/01 22:25:40;;;;;;;125.90;71.80;;;;;;;10.63;100.00;99902.61;215557;1288;98355;-88